sensor_id;sensor_type;location;lat;lon;timestamp;temperature;humidity
5962;DHT22;3007;50.770;0.250;2023-12-20T00:01:58;5.30;99.90
5962;DHT22;3007;50.770;0.250;2023-12-20T00:04:25;5.40;99.90
5962;DHT22;3007;50.770;0.250;2023-12-20T00:06:51;5.40;99.90
5962;DHT22;3007;50.770;0.250;2023-12-20T00:09:18;5.50;99.90
5962;DHT22;3007;50.770;0.250;2023-12-20T00:11:45;5.40;99.90
5962;DHT22;3007;50.770;0.250;2023-12-20T00:14:13;5.40;99.90
5962;DHT22;3007;50.770;0.250;2023-12-20T00:16:40;5.40;99.90
5962;DHT22;3007;50.770;0.250;2023-12-20T00:19:07;5.50;99.90
5962;DHT22;3007;50.770;0.250;2023-12-20T00:21:34;5.40;99.90
5962;DHT22;3007;50.770;0.250;2023-12-20T00:24:01;5.50;99.90
5962;DHT22;3007;50.770;0.250;2023-12-20T00:26:31;5.50;99.90
5962;DHT22;3007;50.770;0.250;2023-12-20T00:29:00;5.50;99.90
5962;DHT22;3007;50.770;0.250;2023-12-20T00:31:31;5.50;99.90
5962;DHT22;3007;50.770;0.250;2023-12-20T00:33:58;5.50;99.90
5962;DHT22;3007;50.770;0.250;2023-12-20T00:36:25;5.50;99.90
5962;DHT22;3007;50.770;0.250;2023-12-20T00:38:51;5.50;99.90
5962;DHT22;3007;50.770;0.250;2023-12-20T00:41:19;5.50;99.90
5962;DHT22;3007;50.770;0.250;2023-12-20T00:43:48;5.50;99.90
5962;DHT22;3007;50.770;0.250;2023-12-20T00:46:17;5.50;99.90
5962;DHT22;3007;50.770;0.250;2023-12-20T00:48:46;5.40;99.90
5962;DHT22;3007;50.770;0.250;2023-12-20T00:51:13;5.40;99.90
5962;DHT22;3007;50.770;0.250;2023-12-20T00:53:40;5.40;99.90
5962;DHT22;3007;50.770;0.250;2023-12-20T00:56:06;5.40;99.90
5962;DHT22;3007;50.770;0.250;2023-12-20T00:58:33;5.40;99.90
5962;DHT22;3007;50.770;0.250;2023-12-20T01:01:00;5.40;99.90
5962;DHT22;3007;50.770;0.250;2023-12-20T01:03:27;5.40;99.90
5962;DHT22;3007;50.770;0.250;2023-12-20T01:05:55;5.30;99.90
5962;DHT22;3007;50.770;0.250;2023-12-20T01:08:22;5.40;99.90
5962;DHT22;3007;50.770;0.250;2023-12-20T01:10:49;5.40;99.90
5962;DHT22;3007;50.770;0.250;2023-12-20T01:13:16;5.40;99.90
5962;DHT22;3007;50.770;0.250;2023-12-20T01:15:43;5.40;99.90
5962;DHT22;3007;50.770;0.250;2023-12-20T01:18:09;5.40;99.90
5962;DHT22;3007;50.770;0.250;2023-12-20T01:20:35;5.40;99.90
5962;DHT22;3007;50.770;0.250;2023-12-20T01:23:04;5.30;99.90
5962;DHT22;3007;50.770;0.250;2023-12-20T01:25:30;5.30;99.90
5962;DHT22;3007;50.770;0.250;2023-12-20T01:27:57;5.20;99.90
5962;DHT22;3007;50.770;0.250;2023-12-20T01:30:24;5.30;99.90
5962;DHT22;3007;50.770;0.250;2023-12-20T01:32:51;5.30;99.90
5962;DHT22;3007;50.770;0.250;2023-12-20T01:35:18;5.30;99.90
5962;DHT22;3007;50.770;0.250;2023-12-20T01:37:44;5.30;99.90
5962;DHT22;3007;50.770;0.250;2023-12-20T01:40:13;5.30;99.90
5962;DHT22;3007;50.770;0.250;2023-12-20T01:42:41;5.30;99.90
5962;DHT22;3007;50.770;0.250;2023-12-20T01:45:08;5.20;99.90
5962;DHT22;3007;50.770;0.250;2023-12-20T01:47:36;5.20;99.90
5962;DHT22;3007;50.770;0.250;2023-12-20T01:50:04;5.20;99.90
5962;DHT22;3007;50.770;0.250;2023-12-20T01:52:34;5.20;99.90
5962;DHT22;3007;50.770;0.250;2023-12-20T01:55:02;5.20;99.90
5962;DHT22;3007;50.770;0.250;2023-12-20T01:57:33;5.30;99.90
5962;DHT22;3007;50.770;0.250;2023-12-20T02:00:00;5.30;99.90
5962;DHT22;3007;50.770;0.250;2023-12-20T02:02:29;5.30;99.90
5962;DHT22;3007;50.770;0.250;2023-12-20T02:04:56;5.30;99.90
5962;DHT22;3007;50.770;0.250;2023-12-20T02:07:23;5.30;99.90
5962;DHT22;3007;50.770;0.250;2023-12-20T02:09:50;5.30;99.90
5962;DHT22;3007;50.770;0.250;2023-12-20T02:12:18;5.30;99.90
5962;DHT22;3007;50.770;0.250;2023-12-20T02:14:47;5.30;99.90
5962;DHT22;3007;50.770;0.250;2023-12-20T02:17:13;5.20;99.90
5962;DHT22;3007;50.770;0.250;2023-12-20T02:19:40;5.10;99.90
5962;DHT22;3007;50.770;0.250;2023-12-20T02:22:09;5.10;99.90
5962;DHT22;3007;50.770;0.250;2023-12-20T02:24:37;5.20;99.90
5962;DHT22;3007;50.770;0.250;2023-12-20T02:27:06;5.20;99.90
5962;DHT22;3007;50.770;0.250;2023-12-20T02:29:33;5.20;99.90
5962;DHT22;3007;50.770;0.250;2023-12-20T02:32:00;5.20;99.90
5962;DHT22;3007;50.770;0.250;2023-12-20T02:34:27;5.10;99.90
5962;DHT22;3007;50.770;0.250;2023-12-20T02:36:54;5.20;99.90
5962;DHT22;3007;50.770;0.250;2023-12-20T02:39:22;5.20;99.90
5962;DHT22;3007;50.770;0.250;2023-12-20T02:41:49;5.20;99.90
5962;DHT22;3007;50.770;0.250;2023-12-20T02:44:15;5.20;99.90
5962;DHT22;3007;50.770;0.250;2023-12-20T02:46:44;5.20;99.90
5962;DHT22;3007;50.770;0.250;2023-12-20T02:49:11;5.20;99.90
5962;DHT22;3007;50.770;0.250;2023-12-20T02:51:38;5.20;99.90
5962;DHT22;3007;50.770;0.250;2023-12-20T02:54:05;5.30;99.90
5962;DHT22;3007;50.770;0.250;2023-12-20T02:56:33;5.30;99.90
5962;DHT22;3007;50.770;0.250;2023-12-20T02:59:00;5.30;99.90
5962;DHT22;3007;50.770;0.250;2023-12-20T03:01:27;5.30;99.90
5962;DHT22;3007;50.770;0.250;2023-12-20T03:03:54;5.40;99.90
5962;DHT22;3007;50.770;0.250;2023-12-20T03:06:20;5.40;99.90
5962;DHT22;3007;50.770;0.250;2023-12-20T03:08:47;5.40;99.90
5962;DHT22;3007;50.770;0.250;2023-12-20T03:11:14;5.40;99.90
5962;DHT22;3007;50.770;0.250;2023-12-20T03:13:42;5.40;99.90
5962;DHT22;3007;50.770;0.250;2023-12-20T03:16:09;5.40;99.90
5962;DHT22;3007;50.770;0.250;2023-12-20T03:18:36;5.40;99.90
5962;DHT22;3007;50.770;0.250;2023-12-20T03:21:03;5.40;99.90
5962;DHT22;3007;50.770;0.250;2023-12-20T03:23:30;5.30;99.90
5962;DHT22;3007;50.770;0.250;2023-12-20T03:25:58;5.30;99.90
5962;DHT22;3007;50.770;0.250;2023-12-20T03:28:25;5.30;99.90
5962;DHT22;3007;50.770;0.250;2023-12-20T03:30:53;5.30;99.90
5962;DHT22;3007;50.770;0.250;2023-12-20T03:33:20;5.30;99.90
5962;DHT22;3007;50.770;0.250;2023-12-20T03:35:46;5.30;99.90
5962;DHT22;3007;50.770;0.250;2023-12-20T03:38:13;5.30;99.90
5962;DHT22;3007;50.770;0.250;2023-12-20T03:40:40;5.30;99.90
5962;DHT22;3007;50.770;0.250;2023-12-20T03:43:07;5.30;99.90
5962;DHT22;3007;50.770;0.250;2023-12-20T03:45:34;5.30;99.90
5962;DHT22;3007;50.770;0.250;2023-12-20T03:48:02;5.30;99.90
5962;DHT22;3007;50.770;0.250;2023-12-20T03:50:29;5.30;99.90
5962;DHT22;3007;50.770;0.250;2023-12-20T03:52:56;5.20;99.90
5962;DHT22;3007;50.770;0.250;2023-12-20T03:55:23;5.30;99.90
5962;DHT22;3007;50.770;0.250;2023-12-20T03:57:49;5.20;99.90
5962;DHT22;3007;50.770;0.250;2023-12-20T04:00:17;5.20;99.90
5962;DHT22;3007;50.770;0.250;2023-12-20T04:02:43;5.20;99.90
5962;DHT22;3007;50.770;0.250;2023-12-20T04:05:12;5.20;99.90
5962;DHT22;3007;50.770;0.250;2023-12-20T04:07:39;5.10;99.90
5962;DHT22;3007;50.770;0.250;2023-12-20T04:10:06;5.10;99.90
5962;DHT22;3007;50.770;0.250;2023-12-20T04:12:33;5.10;99.90
5962;DHT22;3007;50.770;0.250;2023-12-20T04:15:00;5.10;99.90
5962;DHT22;3007;50.770;0.250;2023-12-20T04:17:29;5.10;99.90
5962;DHT22;3007;50.770;0.250;2023-12-20T04:19:55;5.10;99.90
5962;DHT22;3007;50.770;0.250;2023-12-20T04:22:24;5.10;99.90
5962;DHT22;3007;50.770;0.250;2023-12-20T04:24:50;5.10;99.90
5962;DHT22;3007;50.770;0.250;2023-12-20T04:27:17;5.10;99.90
5962;DHT22;3007;50.770;0.250;2023-12-20T04:29:44;5.20;99.90
5962;DHT22;3007;50.770;0.250;2023-12-20T04:32:11;5.10;99.90
5962;DHT22;3007;50.770;0.250;2023-12-20T04:34:37;5.10;99.90
5962;DHT22;3007;50.770;0.250;2023-12-20T04:37:04;5.10;99.90
5962;DHT22;3007;50.770;0.250;2023-12-20T04:39:32;5.10;99.90
5962;DHT22;3007;50.770;0.250;2023-12-20T04:41:59;5.10;99.90
5962;DHT22;3007;50.770;0.250;2023-12-20T04:44:26;5.10;99.90
5962;DHT22;3007;50.770;0.250;2023-12-20T04:46:53;5.10;99.90
5962;DHT22;3007;50.770;0.250;2023-12-20T04:49:22;5.10;99.90
5962;DHT22;3007;50.770;0.250;2023-12-20T04:51:48;5.10;99.90
5962;DHT22;3007;50.770;0.250;2023-12-20T04:54:16;5.10;99.90
5962;DHT22;3007;50.770;0.250;2023-12-20T04:56:44;5.10;99.90
5962;DHT22;3007;50.770;0.250;2023-12-20T04:59:11;5.10;99.90
5962;DHT22;3007;50.770;0.250;2023-12-20T05:01:38;5.00;99.90
5962;DHT22;3007;50.770;0.250;2023-12-20T05:04:05;5.10;99.90
5962;DHT22;3007;50.770;0.250;2023-12-20T05:06:32;5.00;99.90
5962;DHT22;3007;50.770;0.250;2023-12-20T05:08:59;5.00;99.90
5962;DHT22;3007;50.770;0.250;2023-12-20T05:11:26;5.00;99.90
5962;DHT22;3007;50.770;0.250;2023-12-20T05:13:54;5.10;99.90
5962;DHT22;3007;50.770;0.250;2023-12-20T05:16:21;5.00;99.90
5962;DHT22;3007;50.770;0.250;2023-12-20T05:18:48;5.00;99.90
5962;DHT22;3007;50.770;0.250;2023-12-20T05:21:17;5.00;99.90
5962;DHT22;3007;50.770;0.250;2023-12-20T05:23:45;4.90;99.90
5962;DHT22;3007;50.770;0.250;2023-12-20T05:26:12;4.90;99.90
5962;DHT22;3007;50.770;0.250;2023-12-20T05:28:39;4.90;99.90
5962;DHT22;3007;50.770;0.250;2023-12-20T05:31:07;4.90;99.90
5962;DHT22;3007;50.770;0.250;2023-12-20T05:33:34;4.90;99.90
5962;DHT22;3007;50.770;0.250;2023-12-20T05:36:01;4.90;99.90
5962;DHT22;3007;50.770;0.250;2023-12-20T05:38:28;5.00;99.90
5962;DHT22;3007;50.770;0.250;2023-12-20T05:40:54;5.00;99.90
5962;DHT22;3007;50.770;0.250;2023-12-20T05:43:21;5.00;99.90
5962;DHT22;3007;50.770;0.250;2023-12-20T05:45:48;5.00;99.90
5962;DHT22;3007;50.770;0.250;2023-12-20T05:48:16;5.00;99.90
5962;DHT22;3007;50.770;0.250;2023-12-20T05:50:43;5.00;99.90
5962;DHT22;3007;50.770;0.250;2023-12-20T05:53:10;5.00;99.90
5962;DHT22;3007;50.770;0.250;2023-12-20T05:55:39;5.00;99.90
5962;DHT22;3007;50.770;0.250;2023-12-20T05:58:06;5.00;99.90
5962;DHT22;3007;50.770;0.250;2023-12-20T06:00:33;5.00;99.90
5962;DHT22;3007;50.770;0.250;2023-12-20T06:02:59;5.00;99.90
5962;DHT22;3007;50.770;0.250;2023-12-20T06:05:28;5.00;99.90
5962;DHT22;3007;50.770;0.250;2023-12-20T06:07:54;5.00;99.90
5962;DHT22;3007;50.770;0.250;2023-12-20T06:10:23;5.00;99.90
5962;DHT22;3007;50.770;0.250;2023-12-20T06:12:49;5.00;99.90
5962;DHT22;3007;50.770;0.250;2023-12-20T06:15:16;5.00;99.90
5962;DHT22;3007;50.770;0.250;2023-12-20T06:17:43;5.00;99.90
5962;DHT22;3007;50.770;0.250;2023-12-20T06:20:10;5.00;99.90
5962;DHT22;3007;50.770;0.250;2023-12-20T06:22:39;5.00;99.90
5962;DHT22;3007;50.770;0.250;2023-12-20T06:25:07;5.00;99.90
5962;DHT22;3007;50.770;0.250;2023-12-20T06:27:34;5.00;99.90
5962;DHT22;3007;50.770;0.250;2023-12-20T06:30:01;5.00;99.90
5962;DHT22;3007;50.770;0.250;2023-12-20T06:32:31;5.00;99.90
5962;DHT22;3007;50.770;0.250;2023-12-20T06:34:57;5.00;99.90
5962;DHT22;3007;50.770;0.250;2023-12-20T06:37:24;5.00;99.90
5962;DHT22;3007;50.770;0.250;2023-12-20T06:39:52;5.10;99.90
5962;DHT22;3007;50.770;0.250;2023-12-20T06:42:19;5.10;99.90
5962;DHT22;3007;50.770;0.250;2023-12-20T06:44:46;5.10;99.90
5962;DHT22;3007;50.770;0.250;2023-12-20T06:47:13;5.10;99.90
5962;DHT22;3007;50.770;0.250;2023-12-20T06:49:40;5.10;99.90
5962;DHT22;3007;50.770;0.250;2023-12-20T06:52:07;5.10;99.90
5962;DHT22;3007;50.770;0.250;2023-12-20T06:54:33;5.10;99.90
5962;DHT22;3007;50.770;0.250;2023-12-20T06:57:02;5.10;99.90
5962;DHT22;3007;50.770;0.250;2023-12-20T06:59:30;5.20;99.90
5962;DHT22;3007;50.770;0.250;2023-12-20T07:01:58;5.20;99.90
5962;DHT22;3007;50.770;0.250;2023-12-20T07:04:25;5.30;99.90
5962;DHT22;3007;50.770;0.250;2023-12-20T07:06:54;5.20;99.90
5962;DHT22;3007;50.770;0.250;2023-12-20T07:09:23;5.30;99.90
5962;DHT22;3007;50.770;0.250;2023-12-20T07:11:49;5.30;99.90
5962;DHT22;3007;50.770;0.250;2023-12-20T07:14:18;5.30;99.90
5962;DHT22;3007;50.770;0.250;2023-12-20T07:16:44;5.30;99.90
5962;DHT22;3007;50.770;0.250;2023-12-20T07:19:11;5.30;99.90
5962;DHT22;3007;50.770;0.250;2023-12-20T07:21:38;5.30;99.90
5962;DHT22;3007;50.770;0.250;2023-12-20T07:24:05;5.40;99.90
5962;DHT22;3007;50.770;0.250;2023-12-20T07:26:32;5.40;99.90
5962;DHT22;3007;50.770;0.250;2023-12-20T07:28:59;5.40;99.90
5962;DHT22;3007;50.770;0.250;2023-12-20T07:31:27;5.50;99.90
5962;DHT22;3007;50.770;0.250;2023-12-20T07:33:54;5.50;99.90
5962;DHT22;3007;50.770;0.250;2023-12-20T07:36:21;5.50;99.90
5962;DHT22;3007;50.770;0.250;2023-12-20T07:38:48;5.50;99.90
5962;DHT22;3007;50.770;0.250;2023-12-20T07:41:14;5.50;99.90
5962;DHT22;3007;50.770;0.250;2023-12-20T07:43:42;5.60;99.90
5962;DHT22;3007;50.770;0.250;2023-12-20T07:46:09;5.60;99.90
5962;DHT22;3007;50.770;0.250;2023-12-20T07:48:38;5.70;99.90
5962;DHT22;3007;50.770;0.250;2023-12-20T07:51:04;5.80;99.90
5962;DHT22;3007;50.770;0.250;2023-12-20T07:53:33;5.80;99.90
5962;DHT22;3007;50.770;0.250;2023-12-20T07:56:00;5.80;99.90
5962;DHT22;3007;50.770;0.250;2023-12-20T07:58:27;5.80;99.90
5962;DHT22;3007;50.770;0.250;2023-12-20T08:00:55;5.80;99.90
5962;DHT22;3007;50.770;0.250;2023-12-20T08:03:22;5.80;99.90
5962;DHT22;3007;50.770;0.250;2023-12-20T08:05:50;5.90;99.90
5962;DHT22;3007;50.770;0.250;2023-12-20T08:08:17;5.90;99.90
5962;DHT22;3007;50.770;0.250;2023-12-20T08:10:44;6.00;99.90
5962;DHT22;3007;50.770;0.250;2023-12-20T08:13:11;6.00;99.90
5962;DHT22;3007;50.770;0.250;2023-12-20T08:15:38;6.00;99.90
5962;DHT22;3007;50.770;0.250;2023-12-20T08:18:05;6.10;99.90
5962;DHT22;3007;50.770;0.250;2023-12-20T08:20:32;6.10;99.90
5962;DHT22;3007;50.770;0.250;2023-12-20T08:23:00;6.10;99.90
5962;DHT22;3007;50.770;0.250;2023-12-20T08:25:27;6.10;99.90
5962;DHT22;3007;50.770;0.250;2023-12-20T08:27:54;6.20;99.90
5962;DHT22;3007;50.770;0.250;2023-12-20T08:30:20;6.20;99.90
5962;DHT22;3007;50.770;0.250;2023-12-20T08:32:47;6.20;99.90
5962;DHT22;3007;50.770;0.250;2023-12-20T08:35:14;6.30;99.90
5962;DHT22;3007;50.770;0.250;2023-12-20T08:37:41;6.30;99.90
5962;DHT22;3007;50.770;0.250;2023-12-20T08:40:10;6.30;99.90
5962;DHT22;3007;50.770;0.250;2023-12-20T08:42:37;6.30;99.90
5962;DHT22;3007;50.770;0.250;2023-12-20T08:45:04;6.40;99.90
5962;DHT22;3007;50.770;0.250;2023-12-20T08:47:31;6.40;99.90
5962;DHT22;3007;50.770;0.250;2023-12-20T08:49:58;6.40;99.90
5962;DHT22;3007;50.770;0.250;2023-12-20T08:52:27;6.40;99.90
5962;DHT22;3007;50.770;0.250;2023-12-20T08:54:54;6.40;99.90
5962;DHT22;3007;50.770;0.250;2023-12-20T08:57:23;6.40;99.90
5962;DHT22;3007;50.770;0.250;2023-12-20T08:59:50;6.40;99.90
5962;DHT22;3007;50.770;0.250;2023-12-20T09:02:17;6.40;99.90
5962;DHT22;3007;50.770;0.250;2023-12-20T09:04:44;6.40;99.90
5962;DHT22;3007;50.770;0.250;2023-12-20T09:07:21;6.40;99.90
5962;DHT22;3007;50.770;0.250;2023-12-20T09:09:48;6.40;99.90
5962;DHT22;3007;50.770;0.250;2023-12-20T09:12:16;6.50;99.90
5962;DHT22;3007;50.770;0.250;2023-12-20T09:14:45;6.50;99.90
5962;DHT22;3007;50.770;0.250;2023-12-20T09:17:12;6.50;99.90
5962;DHT22;3007;50.770;0.250;2023-12-20T09:19:39;6.60;99.90
5962;DHT22;3007;50.770;0.250;2023-12-20T09:22:06;6.50;99.90
5962;DHT22;3007;50.770;0.250;2023-12-20T09:24:33;6.60;99.90
5962;DHT22;3007;50.770;0.250;2023-12-20T09:27:00;6.70;99.90
5962;DHT22;3007;50.770;0.250;2023-12-20T09:29:26;6.70;99.90
5962;DHT22;3007;50.770;0.250;2023-12-20T09:31:55;6.70;99.90
5962;DHT22;3007;50.770;0.250;2023-12-20T09:34:23;6.70;99.90
5962;DHT22;3007;50.770;0.250;2023-12-20T09:36:51;6.70;99.90
5962;DHT22;3007;50.770;0.250;2023-12-20T09:39:19;6.80;99.90
5962;DHT22;3007;50.770;0.250;2023-12-20T09:41:51;6.80;99.90
5962;DHT22;3007;50.770;0.250;2023-12-20T09:44:23;6.90;99.90
5962;DHT22;3007;50.770;0.250;2023-12-20T09:46:50;6.90;99.90
5962;DHT22;3007;50.770;0.250;2023-12-20T09:49:19;7.00;99.90
5962;DHT22;3007;50.770;0.250;2023-12-20T09:51:46;7.00;99.90
5962;DHT22;3007;50.770;0.250;2023-12-20T09:54:14;7.10;99.90
5962;DHT22;3007;50.770;0.250;2023-12-20T09:56:41;7.20;99.90
5962;DHT22;3007;50.770;0.250;2023-12-20T09:59:08;7.30;99.90
5962;DHT22;3007;50.770;0.250;2023-12-20T10:01:36;7.40;99.90
5962;DHT22;3007;50.770;0.250;2023-12-20T10:04:05;7.50;99.90
5962;DHT22;3007;50.770;0.250;2023-12-20T10:06:36;7.70;99.90
5962;DHT22;3007;50.770;0.250;2023-12-20T10:09:03;7.80;99.90
5962;DHT22;3007;50.770;0.250;2023-12-20T10:11:31;7.90;99.90
5962;DHT22;3007;50.770;0.250;2023-12-20T10:13:59;8.10;99.90
5962;DHT22;3007;50.770;0.250;2023-12-20T10:16:27;8.30;99.90
5962;DHT22;3007;50.770;0.250;2023-12-20T10:18:54;8.40;99.90
5962;DHT22;3007;50.770;0.250;2023-12-20T10:21:21;8.50;99.90
5962;DHT22;3007;50.770;0.250;2023-12-20T10:23:50;8.60;99.90
5962;DHT22;3007;50.770;0.250;2023-12-20T10:26:19;8.70;99.90
5962;DHT22;3007;50.770;0.250;2023-12-20T10:28:50;8.80;99.90
5962;DHT22;3007;50.770;0.250;2023-12-20T10:31:27;8.90;99.90
5962;DHT22;3007;50.770;0.250;2023-12-20T10:33:56;9.00;99.90
5962;DHT22;3007;50.770;0.250;2023-12-20T10:36:23;9.10;99.90
5962;DHT22;3007;50.770;0.250;2023-12-20T10:38:54;9.20;99.90
5962;DHT22;3007;50.770;0.250;2023-12-20T10:41:25;9.30;99.90
5962;DHT22;3007;50.770;0.250;2023-12-20T10:43:58;9.40;99.90
5962;DHT22;3007;50.770;0.250;2023-12-20T10:46:26;9.40;99.90
5962;DHT22;3007;50.770;0.250;2023-12-20T10:48:54;9.40;99.90
5962;DHT22;3007;50.770;0.250;2023-12-20T10:51:25;9.40;99.90
5962;DHT22;3007;50.770;0.250;2023-12-20T10:53:55;9.40;99.90
5962;DHT22;3007;50.770;0.250;2023-12-20T10:56:22;9.40;99.90
5962;DHT22;3007;50.770;0.250;2023-12-20T10:58:50;9.40;99.90
5962;DHT22;3007;50.770;0.250;2023-12-20T11:01:18;9.40;99.90
5962;DHT22;3007;50.770;0.250;2023-12-20T11:03:49;9.40;99.90
5962;DHT22;3007;50.770;0.250;2023-12-20T11:06:29;9.40;99.90
5962;DHT22;3007;50.770;0.250;2023-12-20T11:09:06;9.40;99.90
5962;DHT22;3007;50.770;0.250;2023-12-20T11:11:46;9.40;99.90
5962;DHT22;3007;50.770;0.250;2023-12-20T11:14:22;9.40;99.90
5962;DHT22;3007;50.770;0.250;2023-12-20T11:16:50;9.40;99.90
5962;DHT22;3007;50.770;0.250;2023-12-20T11:19:17;9.50;99.90
5962;DHT22;3007;50.770;0.250;2023-12-20T11:21:46;9.50;99.90
5962;DHT22;3007;50.770;0.250;2023-12-20T11:24:15;9.50;99.90
5962;DHT22;3007;50.770;0.250;2023-12-20T11:26:47;9.50;99.90
5962;DHT22;3007;50.770;0.250;2023-12-20T11:29:29;9.50;99.90
5962;DHT22;3007;50.770;0.250;2023-12-20T11:31:56;9.50;99.90
5962;DHT22;3007;50.770;0.250;2023-12-20T11:34:27;9.50;99.90
5962;DHT22;3007;50.770;0.250;2023-12-20T11:36:57;9.60;99.90
5962;DHT22;3007;50.770;0.250;2023-12-20T11:39:26;9.60;99.90
5962;DHT22;3007;50.770;0.250;2023-12-20T11:41:55;9.70;99.90
5962;DHT22;3007;50.770;0.250;2023-12-20T11:44:22;9.70;99.90
5962;DHT22;3007;50.770;0.250;2023-12-20T11:46:49;9.70;99.90
5962;DHT22;3007;50.770;0.250;2023-12-20T11:49:16;9.60;99.90
5962;DHT22;3007;50.770;0.250;2023-12-20T11:51:46;9.70;99.90
5962;DHT22;3007;50.770;0.250;2023-12-20T11:54:14;9.70;99.90
5962;DHT22;3007;50.770;0.250;2023-12-20T11:56:43;9.70;99.90
5962;DHT22;3007;50.770;0.250;2023-12-20T11:59:09;9.60;99.90
5962;DHT22;3007;50.770;0.250;2023-12-20T12:01:36;9.60;99.90
5962;DHT22;3007;50.770;0.250;2023-12-20T12:04:03;9.60;99.90
5962;DHT22;3007;50.770;0.250;2023-12-20T12:06:30;9.60;99.90
5962;DHT22;3007;50.770;0.250;2023-12-20T12:08:57;9.60;99.90
5962;DHT22;3007;50.770;0.250;2023-12-20T12:11:24;9.60;99.90
5962;DHT22;3007;50.770;0.250;2023-12-20T12:13:52;9.60;99.90
5962;DHT22;3007;50.770;0.250;2023-12-20T12:16:20;9.60;99.90
5962;DHT22;3007;50.770;0.250;2023-12-20T12:18:55;9.60;99.90
5962;DHT22;3007;50.770;0.250;2023-12-20T12:21:22;9.60;99.90
5962;DHT22;3007;50.770;0.250;2023-12-20T12:23:49;9.60;99.90
5962;DHT22;3007;50.770;0.250;2023-12-20T12:26:16;9.60;99.90
5962;DHT22;3007;50.770;0.250;2023-12-20T12:28:43;9.60;99.90
5962;DHT22;3007;50.770;0.250;2023-12-20T12:31:14;9.70;99.90
5962;DHT22;3007;50.770;0.250;2023-12-20T12:33:42;9.60;99.90
5962;DHT22;3007;50.770;0.250;2023-12-20T12:36:09;9.60;99.90
5962;DHT22;3007;50.770;0.250;2023-12-20T12:38:37;9.60;99.90
5962;DHT22;3007;50.770;0.250;2023-12-20T12:41:04;9.60;99.90
5962;DHT22;3007;50.770;0.250;2023-12-20T12:43:32;9.70;99.90
5962;DHT22;3007;50.770;0.250;2023-12-20T12:45:59;9.60;99.90
5962;DHT22;3007;50.770;0.250;2023-12-20T12:48:27;9.70;99.90
5962;DHT22;3007;50.770;0.250;2023-12-20T12:50:54;9.70;99.90
5962;DHT22;3007;50.770;0.250;2023-12-20T12:53:25;9.70;99.90
5962;DHT22;3007;50.770;0.250;2023-12-20T12:55:52;9.70;99.90
5962;DHT22;3007;50.770;0.250;2023-12-20T12:58:19;9.70;99.90
5962;DHT22;3007;50.770;0.250;2023-12-20T13:00:46;9.70;99.90
5962;DHT22;3007;50.770;0.250;2023-12-20T13:03:13;9.70;99.90
5962;DHT22;3007;50.770;0.250;2023-12-20T13:05:42;9.80;99.90
5962;DHT22;3007;50.770;0.250;2023-12-20T13:08:08;9.70;99.90
5962;DHT22;3007;50.770;0.250;2023-12-20T13:10:37;9.70;99.90
5962;DHT22;3007;50.770;0.250;2023-12-20T13:13:04;9.60;99.90
5962;DHT22;3007;50.770;0.250;2023-12-20T13:15:31;9.60;99.90
5962;DHT22;3007;50.770;0.250;2023-12-20T13:17:58;9.60;99.90
5962;DHT22;3007;50.770;0.250;2023-12-20T13:20:25;9.60;99.90
5962;DHT22;3007;50.770;0.250;2023-12-20T13:22:53;9.70;99.90
5962;DHT22;3007;50.770;0.250;2023-12-20T13:25:20;9.60;99.90
5962;DHT22;3007;50.770;0.250;2023-12-20T13:27:47;9.60;99.90
5962;DHT22;3007;50.770;0.250;2023-12-20T13:30:15;9.70;99.90
5962;DHT22;3007;50.770;0.250;2023-12-20T13:32:42;9.70;99.90
5962;DHT22;3007;50.770;0.250;2023-12-20T13:35:09;9.70;99.90
5962;DHT22;3007;50.770;0.250;2023-12-20T13:37:36;9.70;99.90
5962;DHT22;3007;50.770;0.250;2023-12-20T13:40:06;9.80;99.90
5962;DHT22;3007;50.770;0.250;2023-12-20T13:42:33;9.80;99.90
5962;DHT22;3007;50.770;0.250;2023-12-20T13:45:00;9.80;99.90
5962;DHT22;3007;50.770;0.250;2023-12-20T13:47:27;9.80;99.90
5962;DHT22;3007;50.770;0.250;2023-12-20T13:49:54;9.80;99.90
5962;DHT22;3007;50.770;0.250;2023-12-20T13:52:21;9.70;99.90
5962;DHT22;3007;50.770;0.250;2023-12-20T13:54:51;9.70;99.90
5962;DHT22;3007;50.770;0.250;2023-12-20T13:57:19;9.70;99.90
5962;DHT22;3007;50.770;0.250;2023-12-20T13:59:46;9.70;99.90
5962;DHT22;3007;50.770;0.250;2023-12-20T14:02:13;9.80;99.90
5962;DHT22;3007;50.770;0.250;2023-12-20T14:04:42;9.80;99.90
5962;DHT22;3007;50.770;0.250;2023-12-20T14:07:09;9.80;99.90
5962;DHT22;3007;50.770;0.250;2023-12-20T14:09:36;9.80;99.90
5962;DHT22;3007;50.770;0.250;2023-12-20T14:12:03;9.80;99.90
5962;DHT22;3007;50.770;0.250;2023-12-20T14:14:32;9.80;99.90
5962;DHT22;3007;50.770;0.250;2023-12-20T14:16:58;9.80;99.90
5962;DHT22;3007;50.770;0.250;2023-12-20T14:19:25;9.70;99.90
5962;DHT22;3007;50.770;0.250;2023-12-20T14:21:52;9.70;99.90
5962;DHT22;3007;50.770;0.250;2023-12-20T14:24:19;9.70;99.90
5962;DHT22;3007;50.770;0.250;2023-12-20T14:26:46;9.80;99.90
5962;DHT22;3007;50.770;0.250;2023-12-20T14:29:16;9.80;99.90
5962;DHT22;3007;50.770;0.250;2023-12-20T14:31:45;9.90;99.90
5962;DHT22;3007;50.770;0.250;2023-12-20T14:34:12;10.00;99.90
5962;DHT22;3007;50.770;0.250;2023-12-20T14:36:38;10.00;99.90
5962;DHT22;3007;50.770;0.250;2023-12-20T14:39:09;10.00;99.90
5962;DHT22;3007;50.770;0.250;2023-12-20T14:41:38;10.00;99.90
5962;DHT22;3007;50.770;0.250;2023-12-20T14:44:05;10.00;99.90
5962;DHT22;3007;50.770;0.250;2023-12-20T14:46:32;10.00;99.90
5962;DHT22;3007;50.770;0.250;2023-12-20T14:49:00;10.10;99.90
5962;DHT22;3007;50.770;0.250;2023-12-20T14:51:28;10.00;99.90
5962;DHT22;3007;50.770;0.250;2023-12-20T14:53:55;10.00;99.90
5962;DHT22;3007;50.770;0.250;2023-12-20T14:56:23;10.00;99.90
5962;DHT22;3007;50.770;0.250;2023-12-20T14:58:51;10.00;99.90
5962;DHT22;3007;50.770;0.250;2023-12-20T15:01:18;10.00;99.90
5962;DHT22;3007;50.770;0.250;2023-12-20T15:03:47;10.00;99.90
5962;DHT22;3007;50.770;0.250;2023-12-20T15:06:15;10.10;99.90
5962;DHT22;3007;50.770;0.250;2023-12-20T15:08:42;10.10;99.90
5962;DHT22;3007;50.770;0.250;2023-12-20T15:11:08;10.10;99.90
5962;DHT22;3007;50.770;0.250;2023-12-20T15:13:35;10.10;99.90
5962;DHT22;3007;50.770;0.250;2023-12-20T15:16:03;10.10;99.90
5962;DHT22;3007;50.770;0.250;2023-12-20T15:18:30;10.10;99.90
5962;DHT22;3007;50.770;0.250;2023-12-20T15:20:57;10.10;99.90
5962;DHT22;3007;50.770;0.250;2023-12-20T15:23:26;10.10;99.90
5962;DHT22;3007;50.770;0.250;2023-12-20T15:25:54;10.10;99.90
5962;DHT22;3007;50.770;0.250;2023-12-20T15:28:21;10.10;99.90
5962;DHT22;3007;50.770;0.250;2023-12-20T15:30:47;10.10;99.90
5962;DHT22;3007;50.770;0.250;2023-12-20T15:33:14;10.10;99.90
5962;DHT22;3007;50.770;0.250;2023-12-20T15:35:41;10.10;99.90
5962;DHT22;3007;50.770;0.250;2023-12-20T15:38:08;10.10;99.90
5962;DHT22;3007;50.770;0.250;2023-12-20T15:40:36;10.10;99.90
5962;DHT22;3007;50.770;0.250;2023-12-20T15:43:03;10.10;99.90
5962;DHT22;3007;50.770;0.250;2023-12-20T15:45:31;10.10;99.90
5962;DHT22;3007;50.770;0.250;2023-12-20T15:47:57;10.20;99.90
5962;DHT22;3007;50.770;0.250;2023-12-20T15:50:24;10.20;99.90
5962;DHT22;3007;50.770;0.250;2023-12-20T15:52:51;10.20;99.90
5962;DHT22;3007;50.770;0.250;2023-12-20T15:55:18;10.10;99.90
5962;DHT22;3007;50.770;0.250;2023-12-20T15:57:46;10.10;99.90
5962;DHT22;3007;50.770;0.250;2023-12-20T16:00:14;10.10;99.90
5962;DHT22;3007;50.770;0.250;2023-12-20T16:02:41;10.20;99.90
5962;DHT22;3007;50.770;0.250;2023-12-20T16:05:08;10.20;99.90
5962;DHT22;3007;50.770;0.250;2023-12-20T16:07:35;10.20;99.90
5962;DHT22;3007;50.770;0.250;2023-12-20T16:10:02;10.20;99.90
5962;DHT22;3007;50.770;0.250;2023-12-20T16:12:29;10.20;99.90
5962;DHT22;3007;50.770;0.250;2023-12-20T16:14:58;10.20;99.90
5962;DHT22;3007;50.770;0.250;2023-12-20T16:17:24;10.20;99.90
5962;DHT22;3007;50.770;0.250;2023-12-20T16:19:51;10.20;99.90